Time;durP1;ratioP1;P1;durP2;ratioP2;P2;SDS_P1;SDS_P2;PMS_P1;PMS_P2;Temp;Humidity;BMP_temperature;BMP_pressure;BME280_temperature;BME280_humidity;BME280_pressure;Samples;Min_cycle;Max_cycle;Signal;HPM_P1;HPM_P2
2020/12/02 00:00:42;;;;;;;7.82;2.88;;;11.00;58.80;;;;;;5025118;28;80719;-76
2020/12/02 00:03:33;;;;;;;4.70;1.67;;;11.00;58.00;;;;;;5025419;28;80063;-76
2020/12/02 00:06:00;;;;;;;5.80;1.70;;;11.10;56.10;;;;;;5027488;28;80943;-76
2020/12/02 00:08:42;;;;;;;7.10;2.83;;;11.10;55.50;;;;;;5025433;28;80285;-78
2020/12/02 00:11:10;;;;;;;7.35;2.92;;;11.10;56.50;;;;;;5025838;28;81029;-76
2020/12/02 00:13:40;;;;;;;7.75;2.97;;;11.10;56.90;;;;;;5008458;28;82258;-75
2020/12/02 00:16:08;;;;;;;7.10;3.38;;;11.20;57.20;;;;;;5025472;28;83472;-75
2020/12/02 00:18:35;;;;;;;7.10;2.60;;;11.10;57.20;;;;;;5025003;28;82722;-77
2020/12/02 00:21:02;;;;;;;7.35;3.53;;;11.10;57.10;;;;;;5025071;28;82799;-75
2020/12/02 00:23:28;;;;;;;7.38;2.67;;;11.00;57.20;;;;;;5025307;28;83203;-75
2020/12/02 00:25:54;;;;;;;6.78;2.67;;;11.00;57.20;;;;;;5025740;28;83661;-75
2020/12/02 00:28:20;;;;;;;7.80;2.75;;;11.00;57.50;;;;;;5027118;28;79962;-76
2020/12/02 00:30:46;;;;;;;3.92;2.20;;;10.90;57.80;;;;;;5025392;28;81075;-76
2020/12/02 00:33:18;;;;;;;5.28;2.35;;;10.90;58.10;;;;;;5024939;28;80284;-78
2020/12/02 00:35:44;;;;;;;7.22;3.13;;;10.90;58.50;;;;;;5024695;28;82550;-76
2020/12/02 00:38:12;;;;;;;7.63;3.08;;;10.90;58.70;;;;;;5024744;28;80754;-75
2020/12/02 00:40:44;;;;;;;6.93;2.92;;;10.90;58.80;;;;;;5024553;28;82652;-76
2020/12/02 00:43:11;;;;;;;6.78;2.75;;;10.90;59.00;;;;;;5025071;28;83509;-75
2020/12/02 00:45:38;;;;;;;7.45;3.22;;;10.90;59.20;;;;;;5025116;28;80680;-75
2020/12/02 00:48:09;;;;;;;4.63;2.58;;;10.90;59.30;;;;;;5025200;28;80370;-76
2020/12/02 00:50:35;;;;;;;6.93;2.90;;;10.80;59.10;;;;;;5024724;28;80802;-76
2020/12/02 00:53:14;;;;;;;6.18;3.03;;;10.80;59.20;;;;;;5025377;28;80770;-75
2020/12/02 00:55:44;;;;;;;6.43;3.10;;;10.70;59.40;;;;;;5024300;28;83301;-77
2020/12/02 00:58:19;;;;;;;5.05;2.55;;;10.70;59.60;;;;;;5025102;28;80864;-77
2020/12/02 01:00:46;;;;;;;5.15;2.40;;;10.70;59.60;;;;;;5024926;28;82553;-75
2020/12/02 01:03:29;;;;;;;8.98;3.65;;;10.70;59.50;;;;;;5025804;28;82846;-77
2020/12/02 01:05:58;;;;;;;7.93;2.22;;;10.70;59.50;;;;;;5027341;28;80768;-75
2020/12/02 01:08:31;;;;;;;7.18;2.50;;;10.60;59.70;;;;;;5025556;28;83008;-76
2020/12/02 01:11:16;;;;;;;5.05;2.25;;;10.60;59.70;;;;;;5025423;28;81864;-76
2020/12/02 01:13:43;;;;;;;5.93;2.67;;;10.60;59.60;;;;;;5025409;28;83468;-76
2020/12/02 01:16:16;;;;;;;5.93;2.38;;;10.50;59.80;;;;;;5025618;28;80025;-76
2020/12/02 01:18:42;;;;;;;4.10;2.40;;;10.40;60.10;;;;;;5025096;28;82486;-77
2020/12/02 01:21:14;;;;;;;7.22;2.30;;;10.50;60.40;;;;;;5025291;28;80790;-76
2020/12/02 01:23:47;;;;;;;5.72;2.40;;;10.50;60.80;;;;;;5024834;28;80062;-76
2020/12/02 01:26:13;;;;;;;6.95;2.53;;;10.50;60.80;;;;;;5029238;28;80571;-76
2020/12/02 01:28:40;;;;;;;4.82;2.38;;;10.60;60.70;;;;;;5029890;28;80800;-76
2020/12/02 01:31:06;;;;;;;5.70;2.63;;;10.50;60.70;;;;;;5028095;28;82810;-76
2020/12/02 01:33:32;;;;;;;4.03;2.03;;;10.50;60.70;;;;;;5029789;28;79928;-76
2020/12/02 01:35:58;;;;;;;6.75;3.40;;;10.50;60.50;;;;;;5028070;28;81787;-76
2020/12/02 01:38:32;;;;;;;12.45;3.53;;;10.50;60.40;;;;;;5028195;28;83125;-75
2020/12/02 01:40:58;;;;;;;3.67;2.30;;;10.60;60.90;;;;;;5028108;28;80890;-75
2020/12/02 01:43:24;;;;;;;5.28;2.88;;;10.50;61.10;;;;;;5028866;28;79878;-76
2020/12/02 01:45:59;;;;;;;6.13;2.60;;;10.50;61.20;;;;;;5030735;28;79561;-75
2020/12/02 01:49:09;;;;;;;3.75;1.77;;;10.60;60.90;;;;;;5029202;28;82682;-75
2020/12/02 01:51:37;;;;;;;7.88;2.28;;;10.60;60.10;;;;;;5032407;28;80964;-75
2020/12/02 01:54:11;;;;;;;6.57;2.42;;;10.50;60.10;;;;;;5029585;28;80819;-75
2020/12/02 01:57:14;;;;;;;5.45;2.30;;;10.50;59.60;;;;;;5029587;28;79810;-75
2020/12/02 01:59:59;;;;;;;5.43;2.00;;;10.50;59.00;;;;;;5030722;28;83701;-77
2020/12/02 02:02:43;;;;;;;4.68;2.20;;;10.50;58.70;;;;;;5030716;28;82920;-76
2020/12/02 02:05:14;;;;;;;4.60;2.38;;;10.40;58.60;;;;;;5032213;28;79827;-76
2020/12/02 02:07:41;;;;;;;4.32;1.83;;;10.50;58.50;;;;;;5032256;28;82018;-75
2020/12/02 02:10:26;;;;;;;4.57;1.73;;;10.50;58.30;;;;;;5032218;28;80911;-76
2020/12/02 02:12:55;;;;;;;4.72;1.85;;;10.50;58.20;;;;;;5032317;28;79965;-75
2020/12/02 02:15:45;;;;;;;5.10;2.38;;;10.50;58.20;;;;;;5032144;28;82376;-76
2020/12/02 02:18:23;;;;;;;6.25;2.45;;;10.50;57.80;;;;;;5031765;28;81817;-76
2020/12/02 02:21:01;;;;;;;6.25;2.00;;;10.60;58.10;;;;;;5031756;28;80286;-75
2020/12/02 02:23:27;;;;;;;6.03;2.10;;;10.60;58.40;;;;;;5029879;28;80075;-76
2020/12/02 02:26:14;;;;;;;5.38;2.40;;;10.60;58.80;;;;;;5029775;28;81063;-75
2020/12/02 02:29:07;;;;;;;4.43;2.15;;;10.60;59.20;;;;;;5030227;28;80763;-75
2020/12/02 02:32:09;;;;;;;5.03;2.13;;;10.60;59.30;;;;;;5030395;28;80060;-76
2020/12/02 02:34:41;;;;;;;3.50;1.85;;;10.60;59.00;;;;;;5029637;28;80870;-76
2020/12/02 02:37:11;;;;;;;4.20;2.10;;;10.60;59.10;;;;;;5028677;28;80135;-76
2020/12/02 02:39:39;;;;;;;5.85;2.15;;;10.60;58.90;;;;;;5029003;28;84403;-76
2020/12/02 02:42:20;;;;;;;4.05;1.77;;;10.60;58.80;;;;;;5029227;28;80351;-76
2020/12/02 02:44:46;;;;;;;5.10;2.10;;;10.70;58.90;;;;;;5030040;28;80817;-75
2020/12/02 02:47:12;;;;;;;4.95;2.45;;;10.70;58.70;;;;;;5029109;28;80470;-75
2020/12/02 02:49:38;;;;;;;3.88;2.15;;;10.60;58.30;;;;;;5030549;28;80535;-76
2020/12/02 02:52:04;;;;;;;4.97;2.03;;;10.60;58.20;;;;;;5029782;28;80745;-75
2020/12/02 02:54:30;;;;;;;5.35;2.05;;;10.60;58.20;;;;;;5028010;28;82062;-74
2020/12/02 02:56:56;;;;;;;6.25;2.10;;;10.60;58.40;;;;;;5027983;28;80612;-75
2020/12/02 02:59:21;;;;;;;4.60;1.75;;;10.50;58.60;;;;;;5027999;28;81114;-75
2020/12/02 03:01:48;;;;;;;4.97;1.95;;;10.50;58.60;;;;;;5027380;28;80193;-76
2020/12/02 03:04:14;;;;;;;4.43;2.20;;;10.50;58.70;;;;;;5029048;28;80894;-77
2020/12/02 03:06:40;;;;;;;3.97;1.92;;;10.50;58.80;;;;;;5029073;28;80594;-76
2020/12/02 03:09:09;;;;;;;4.45;2.03;;;10.50;59.00;;;;;;5028553;28;79945;-76
2020/12/02 03:11:35;;;;;;;5.22;2.30;;;10.50;59.10;;;;;;5028359;28;80334;-75
2020/12/02 03:14:02;;;;;;;4.45;2.50;;;10.50;59.10;;;;;;5028297;28;83117;-76
2020/12/02 03:16:38;;;;;;;6.38;2.00;;;10.50;59.30;;;;;;5030039;28;79762;-75
2020/12/02 03:19:21;;;;;;;4.70;2.28;;;10.50;59.60;;;;;;5027661;28;82431;-75
2020/12/02 03:21:48;;;;;;;5.13;2.30;;;10.50;59.80;;;;;;5028085;28;83408;-77
2020/12/02 03:24:14;;;;;;;4.65;2.45;;;10.40;59.80;;;;;;5030657;28;79852;-75
2020/12/02 03:26:41;;;;;;;5.57;2.10;;;10.50;59.80;;;;;;5029009;28;81528;-75
2020/12/02 03:29:09;;;;;;;6.60;2.03;;;10.50;60.00;;;;;;5027335;28;82625;-77
2020/12/02 03:31:36;;;;;;;4.40;2.35;;;10.50;60.20;;;;;;5026864;28;82572;-75
2020/12/02 03:34:02;;;;;;;3.15;2.13;;;10.50;60.30;;;;;;5027056;28;83517;-75
2020/12/02 03:36:28;;;;;;;5.05;2.08;;;10.50;60.60;;;;;;5028649;28;80137;-76
2020/12/02 03:38:54;;;;;;;3.88;2.20;;;10.50;60.70;;;;;;5028033;28;82147;-75
2020/12/02 03:41:21;;;;;;;4.07;1.85;;;10.50;60.80;;;;;;5027108;28;82715;-76
2020/12/02 03:43:47;;;;;;;6.53;2.75;;;10.40;60.80;;;;;;5028016;28;81057;-76
2020/12/02 03:46:14;;;;;;;4.30;2.40;;;10.40;61.00;;;;;;5029784;28;79752;-76
2020/12/02 03:48:39;;;;;;;4.97;2.05;;;10.30;61.20;;;;;;5028432;28;82619;-76
2020/12/02 03:51:05;;;;;;;4.55;2.63;;;10.20;61.40;;;;;;5030926;28;79661;-76
2020/12/02 03:53:31;;;;;;;3.95;2.45;;;10.20;61.50;;;;;;5030702;28;79773;-76
2020/12/02 03:55:57;;;;;;;3.67;2.15;;;10.20;61.50;;;;;;5029133;28;82562;-76
2020/12/02 03:58:23;;;;;;;3.50;2.20;;;10.20;61.50;;;;;;5029564;28;80598;-76
2020/12/02 04:00:49;;;;;;;4.13;2.20;;;10.10;61.50;;;;;;5026451;28;82554;-75
2020/12/02 04:03:15;;;;;;;5.63;2.47;;;10.10;61.60;;;;;;5029325;28;80053;-75
2020/12/02 04:05:41;;;;;;;3.72;1.85;;;10.20;61.40;;;;;;5026986;28;82378;-76
2020/12/02 04:08:07;;;;;;;4.43;1.75;;;10.10;61.50;;;;;;5026507;28;81739;-75
2020/12/02 04:10:34;;;;;;;4.82;1.75;;;10.20;61.50;;;;;;5026391;28;80487;-76
2020/12/02 04:13:00;;;;;;;3.63;2.00;;;10.10;61.90;;;;;;5028124;28;81046;-76
2020/12/02 04:15:26;;;;;;;5.55;2.10;;;10.10;62.00;;;;;;5027052;28;81457;-75
2020/12/02 04:17:52;;;;;;;5.43;2.13;;;10.20;61.90;;;;;;5027708;28;82883;-76
2020/12/02 04:20:20;;;;;;;4.68;2.20;;;10.10;61.80;;;;;;5029094;28;80418;-76
2020/12/02 04:22:49;;;;;;;7.75;2.70;;;10.10;61.90;;;;;;5028114;28;83512;-75
2020/12/02 04:25:16;;;;;;;3.97;1.90;;;10.00;62.00;;;;;;5029974;28;80442;-77
2020/12/02 04:27:42;;;;;;;6.90;2.13;;;10.00;62.10;;;;;;5030256;28;79987;-74
2020/12/02 04:30:08;;;;;;;5.38;2.45;;;10.10;62.30;;;;;;5029582;28;80050;-75
2020/12/02 04:32:35;;;;;;;5.50;2.83;;;10.10;62.30;;;;;;5029902;28;80987;-75
2020/12/02 04:35:03;;;;;;;4.65;2.45;;;10.10;62.30;;;;;;5029375;28;82938;-75
2020/12/02 04:37:33;;;;;;;5.03;2.65;;;10.10;62.60;;;;;;5032587;28;80737;-75
2020/12/02 04:40:00;;;;;;;4.38;2.28;;;10.10;62.80;;;;;;5032125;28;80703;-75
2020/12/02 04:42:30;;;;;;;7.05;2.30;;;10.00;62.90;;;;;;5028784;28;81127;-75
2020/12/02 04:44:58;;;;;;;7.88;5.38;;;10.00;63.10;;;;;;5027912;28;80736;-75
2020/12/02 04:47:35;;;;;;;5.25;2.30;;;9.90;63.30;;;;;;5026921;28;81353;-75
2020/12/02 04:50:23;;;;;;;4.40;2.00;;;9.90;63.80;;;;;;5027005;28;79775;-75
2020/12/02 04:53:14;;;;;;;4.85;1.80;;;9.80;63.70;;;;;;5026769;28;79773;-75
2020/12/02 04:55:42;;;;;;;6.30;2.03;;;9.80;63.60;;;;;;5027901;28;80010;-75
2020/12/02 04:58:23;;;;;;;4.38;1.88;;;9.60;63.60;;;;;;5027852;28;82810;-75
2020/12/02 05:00:49;;;;;;;3.95;1.80;;;9.50;63.50;;;;;;5032970;28;80943;-76
2020/12/02 05:03:15;;;;;;;2.92;1.30;;;9.50;63.60;;;;;;5033180;28;81182;-75
2020/12/02 05:05:42;;;;;;;4.07;1.95;;;9.50;63.60;;;;;;5033183;28;80552;-76
2020/12/02 05:08:24;;;;;;;5.47;2.30;;;9.40;63.70;;;;;;5033089;28;82409;-75
2020/12/02 05:10:51;;;;;;;4.38;2.05;;;9.40;63.70;;;;;;5031955;28;79949;-76
2020/12/02 05:13:18;;;;;;;5.00;2.22;;;9.40;63.60;;;;;;5032811;28;80757;-75
2020/12/02 05:15:44;;;;;;;5.78;2.67;;;9.40;63.80;;;;;;5034066;28;81211;-75
2020/12/02 05:18:19;;;;;;;5.55;2.17;;;9.40;63.90;;;;;;5033120;28;79887;-75
2020/12/02 05:21:02;;;;;;;3.75;2.08;;;9.40;64.00;;;;;;5030391;28;80909;-75
2020/12/02 05:23:28;;;;;;;6.22;2.53;;;9.50;64.00;;;;;;5030683;28;80503;-75
2020/12/02 05:25:54;;;;;;;7.57;2.03;;;9.50;64.20;;;;;;5030054;28;82693;-75
2020/12/02 05:28:22;;;;;;;4.63;2.22;;;9.40;64.20;;;;;;5031051;28;82724;-75
2020/12/02 05:30:48;;;;;;;10.73;3.15;;;9.40;64.20;;;;;;5033643;28;80471;-75
2020/12/02 05:33:14;;;;;;;3.95;2.00;;;9.40;64.30;;;;;;5031001;28;80809;-76
2020/12/02 05:35:47;;;;;;;5.38;1.90;;;9.40;64.40;;;;;;5032032;28;80353;-76
2020/12/02 05:38:24;;;;;;;8.18;2.10;;;9.30;64.70;;;;;;5031458;28;80613;-76
2020/12/02 05:40:52;;;;;;;4.45;1.80;;;9.30;64.70;;;;;;5030234;28;81784;-75
2020/12/02 05:43:45;;;;;;;7.10;2.22;;;9.30;64.60;;;;;;5033060;28;82494;-75
2020/12/02 05:47:10;;;;;;;4.30;2.17;;;9.30;64.40;;;;;;5035437;28;83089;-76
2020/12/02 05:49:41;;;;;;;9.75;4.03;;;9.30;64.30;;;;;;4993522;28;84209;-75
2020/12/02 05:52:19;;;;;;;9.63;4.25;;;9.20;64.40;;;;;;4992089;28;79975;-75
2020/12/02 05:54:46;;;;;;;10.43;4.40;;;9.20;64.40;;;;;;5013361;28;82285;-77
2020/12/02 05:57:16;;;;;;;10.40;5.10;;;9.20;64.30;;;;;;5031651;28;79718;-76
2020/12/02 05:59:45;;;;;;;10.07;4.90;;;9.30;64.50;;;;;;5032952;28;79836;-76
2020/12/02 06:02:11;;;;;;;4.95;2.40;;;9.30;64.50;;;;;;5033438;28;80590;-74
2020/12/02 06:04:37;;;;;;;7.03;2.63;;;9.30;64.10;;;;;;5034282;28;79673;-76
2020/12/02 06:07:03;;;;;;;6.95;2.60;;;9.20;64.00;;;;;;5037182;28;80357;-76
2020/12/02 06:09:44;;;;;;;12.73;3.85;;;9.20;64.10;;;;;;5034008;28;83166;-76
2020/12/02 06:12:16;;;;;;;8.35;3.10;;;9.20;64.00;;;;;;5033296;28;83399;-76
2020/12/02 06:14:42;;;;;;;7.13;3.50;;;9.10;64.00;;;;;;5035829;28;81351;-76
2020/12/02 06:17:30;;;;;;;10.07;3.60;;;9.10;64.10;;;;;;5030347;28;84281;-76
2020/12/02 06:19:57;;;;;;;8.95;2.70;;;9.00;63.90;;;;;;5029444;28;83490;-76
2020/12/02 06:22:42;;;;;;;7.63;2.78;;;9.00;64.10;;;;;;5011804;28;84517;-77
2020/12/02 06:26:03;;;;;;;8.68;3.28;;;9.00;64.00;;;;;;5031138;28;80858;-77
2020/12/02 06:28:29;;;;;;;4.63;2.40;;;9.00;63.90;;;;;;4974241;28;82829;-76
2020/12/02 06:31:04;;;;;;;5.05;2.30;;;9.10;63.80;;;;;;5021247;28;82772;-75
2020/12/02 06:33:36;;;;;;;8.68;3.17;;;9.20;63.60;;;;;;5032028;28;80289;-76
2020/12/02 06:36:24;;;;;;;6.35;3.10;;;9.20;63.40;;;;;;5031599;28;80520;-75
2020/12/02 06:39:00;;;;;;;5.78;3.03;;;9.30;63.70;;;;;;5031089;28;80907;-75
2020/12/02 06:41:35;;;;;;;8.23;3.17;;;9.30;64.20;;;;;;5030251;28;83259;-75
2020/12/02 06:44:13;;;;;;;6.20;2.90;;;9.40;64.30;;;;;;5029674;28;80837;-77
2020/12/02 06:46:55;;;;;;;4.95;3.05;;;9.40;64.20;;;;;;5034272;28;79763;-76
2020/12/02 06:49:33;;;;;;;5.45;2.40;;;9.40;64.10;;;;;;5032837;28;81042;-76
2020/12/02 06:52:03;;;;;;;7.53;2.80;;;9.40;64.10;;;;;;5031449;28;81394;-76
2020/12/02 06:54:31;;;;;;;5.35;2.90;;;9.40;63.80;;;;;;5031666;28;82936;-75
2020/12/02 06:57:04;;;;;;;7.60;2.67;;;9.40;63.70;;;;;;5031662;28;81145;-74
2020/12/02 06:59:30;;;;;;;8.93;4.03;;;9.50;63.80;;;;;;5033307;28;80230;-76
2020/12/02 07:02:05;;;;;;;6.82;3.05;;;9.40;63.60;;;;;;5031427;28;81008;-77
2020/12/02 07:04:37;;;;;;;9.13;3.38;;;9.40;63.60;;;;;;5031639;28;81249;-75
2020/12/02 07:07:04;;;;;;;9.27;2.60;;;9.40;63.70;;;;;;5015574;28;80895;-75
2020/12/02 07:09:32;;;;;;;6.32;2.90;;;9.40;63.70;;;;;;5029695;28;80494;-75
2020/12/02 07:12:03;;;;;;;5.63;2.30;;;9.40;63.60;;;;;;5032683;28;80093;-75
2020/12/02 07:14:38;;;;;;;7.00;2.20;;;9.40;63.40;;;;;;5031795;28;79882;-78
2020/12/02 07:17:06;;;;;;;4.75;2.13;;;9.40;63.40;;;;;;5030539;28;82700;-77
2020/12/02 07:19:48;;;;;;;8.10;2.13;;;9.40;63.40;;;;;;5033035;28;81681;-75
2020/12/02 07:22:33;;;;;;;6.53;2.33;;;9.50;63.70;;;;;;5033624;28;79838;-76
2020/12/02 07:25:05;;;;;;;6.47;2.90;;;9.50;63.80;;;;;;5029596;28;83243;-77
2020/12/02 07:27:39;;;;;;;6.30;2.92;;;9.40;63.90;;;;;;5028840;28;80293;-76
2020/12/02 07:30:07;;;;;;;5.40;1.70;;;9.50;64.00;;;;;;5014891;28;80817;-76
2020/12/02 07:32:33;;;;;;;5.30;1.65;;;9.50;64.00;;;;;;5031328;28;79850;-75
2020/12/02 07:35:06;;;;;;;3.40;1.00;;;9.60;63.70;;;;;;5029117;28;80026;-75
2020/12/02 07:37:32;;;;;;;2.30;0.93;;;9.70;63.50;;;;;;5030743;28;80098;-75
2020/12/02 07:40:03;;;;;;;5.78;1.25;;;9.80;63.20;;;;;;5031490;28;79903;-75
2020/12/02 07:42:38;;;;;;;4.70;1.13;;;9.90;62.80;;;;;;5031667;28;81033;-75
2020/12/02 07:45:13;;;;;;;9.35;1.60;;;9.90;62.60;;;;;;5031423;28;79977;-76
2020/12/02 07:47:39;;;;;;;4.32;0.80;;;9.90;62.50;;;;;;5031339;28;79717;-75
2020/12/02 07:50:31;;;;;;;4.32;0.70;;;9.90;62.40;;;;;;5030153;28;80937;-75
2020/12/02 07:53:11;;;;;;;5.05;0.85;;;9.90;62.20;;;;;;5031858;28;80992;-75
2020/12/02 07:55:44;;;;;;;2.45;1.15;;;9.90;62.20;;;;;;5032786;28;80987;-75
2020/12/02 07:58:41;;;;;;;1.95;0.88;;;9.90;62.40;;;;;;5035171;28;80615;-75
2020/12/02 08:01:36;;;;;;;2.63;0.63;;;9.90;61.90;;;;;;5032243;28;80469;-76
2020/12/02 08:04:20;;;;;;;15.85;1.15;;;9.90;61.70;;;;;;5032196;28;80013;-76
2020/12/02 08:06:59;;;;;;;5.32;1.20;;;9.90;61.50;;;;;;5031590;28;80561;-69
2020/12/02 08:09:25;;;;;;;3.70;0.80;;;10.00;61.50;;;;;;5027836;28;80571;-69
2020/12/02 08:12:00;;;;;;;3.00;0.50;;;10.10;60.90;;;;;;5026016;28;80219;-69
2020/12/02 08:14:32;;;;;;;4.40;0.70;;;10.30;60.20;;;;;;5027454;28;80455;-68
2020/12/02 08:17:18;;;;;;;5.30;1.33;;;10.40;59.80;;;;;;5027509;28;80362;-68
2020/12/02 08:19:50;;;;;;;4.25;1.13;;;10.40;59.30;;;;;;5026023;28;82171;-69
2020/12/02 08:22:43;;;;;;;3.05;1.05;;;10.60;59.00;;;;;;5025559;28;80512;-70
2020/12/02 08:25:49;;;;;;;3.15;0.73;;;10.70;57.70;;;;;;5027985;28;79619;-69
2020/12/02 08:28:26;;;;;;;3.80;1.23;;;10.90;57.20;;;;;;5022566;28;82973;-69
2020/12/02 08:31:13;;;;;;;2.60;0.50;;;11.00;56.50;;;;;;5025736;28;81450;-69
2020/12/02 08:33:39;;;;;;;2.63;1.42;;;11.10;55.70;;;;;;5025971;28;81660;-68
2020/12/02 08:36:07;;;;;;;4.68;1.00;;;11.20;55.40;;;;;;5030613;28;80718;-69
2020/12/02 08:38:37;;;;;;;2.47;0.65;;;11.30;55.00;;;;;;5028744;28;82453;-67
2020/12/02 08:41:03;;;;;;;1.83;0.75;;;11.40;54.50;;;;;;5028444;28;80754;-69
2020/12/02 08:43:40;;;;;;;5.57;0.65;;;11.40;54.00;;;;;;5029063;28;82738;-69
2020/12/02 08:46:24;;;;;;;6.05;1.15;;;11.40;53.50;;;;;;5028687;28;83933;-69
2020/12/02 08:49:00;;;;;;;3.10;0.88;;;11.40;53.20;;;;;;5030229;28;80215;-69
2020/12/02 08:51:26;;;;;;;5.18;1.00;;;11.40;53.20;;;;;;5029215;28;80737;-68
2020/12/02 08:53:53;;;;;;;10.23;2.83;;;11.60;52.90;;;;;;5029078;28;82622;-68
2020/12/02 08:56:37;;;;;;;4.72;0.90;;;11.70;52.50;;;;;;5029083;28;81531;-69
2020/12/02 08:59:09;;;;;;;2.60;0.80;;;11.90;52.30;;;;;;5028978;28;82931;-68
2020/12/02 09:01:35;;;;;;;5.78;1.30;;;11.90;51.80;;;;;;5029018;28;83059;-68
2020/12/02 09:04:01;;;;;;;3.97;0.80;;;12.00;51.80;;;;;;5028832;28;83164;-70
2020/12/02 09:06:27;;;;;;;3.80;0.95;;;12.20;51.50;;;;;;5028945;28;80726;-69
2020/12/02 09:08:53;;;;;;;6.68;1.17;;;12.30;51.10;;;;;;5027784;28;82174;-69
2020/12/02 09:11:32;;;;;;;4.85;1.45;;;12.40;50.80;;;;;;5028076;28;81730;-69
2020/12/02 09:13:58;;;;;;;4.35;0.65;;;12.60;50.20;;;;;;5029991;28;80068;-68
2020/12/02 09:16:33;;;;;;;6.22;1.10;;;12.70;50.10;;;;;;5029650;28;80573;-72
2020/12/02 09:19:01;;;;;;;2.50;0.60;;;12.90;49.40;;;;;;5029725;28;79691;-70
2020/12/02 09:21:28;;;;;;;8.10;1.02;;;13.20;49.00;;;;;;5027849;28;81902;-69
2020/12/02 09:23:55;;;;;;;7.38;1.02;;;13.50;48.10;;;;;;5030599;28;79637;-69
2020/12/02 09:26:23;;;;;;;2.45;0.85;;;13.90;46.80;;;;;;5028627;28;83518;-69
2020/12/02 09:28:50;;;;;;;4.53;1.20;;;14.40;46.20;;;;;;5030860;28;79840;-70
2020/12/02 09:31:18;;;;;;;13.73;1.17;;;14.70;45.30;;;;;;5027395;28;82497;-70
2020/12/02 09:33:45;;;;;;;7.40;1.00;;;15.20;43.90;;;;;;5027744;28;80031;-68
2020/12/02 09:36:12;;;;;;;5.93;0.60;;;15.30;43.30;;;;;;5027442;28;81287;-69
2020/12/02 09:38:38;;;;;;;2.95;0.75;;;15.10;43.50;;;;;;5027042;28;82803;-69
2020/12/02 09:41:32;;;;;;;4.03;0.68;;;15.00;43.50;;;;;;5027863;28;81982;-68
2020/12/02 09:44:30;;;;;;;3.85;1.58;;;14.60;44.30;;;;;;5012968;28;80833;-70
2020/12/02 09:47:09;;;;;;;6.00;1.33;;;14.70;44.50;;;;;;5026644;28;81054;-68
2020/12/02 09:49:37;;;;;;;4.50;1.40;;;15.10;43.50;;;;;;5028645;28;80277;-70
2020/12/02 09:52:09;;;;;;;5.43;1.30;;;15.60;43.00;;;;;;5027608;28;83285;-70
2020/12/02 09:54:46;;;;;;;6.18;0.77;;;15.50;42.60;;;;;;5027329;28;80573;-70
2020/12/02 09:57:15;;;;;;;5.63;0.90;;;15.50;41.80;;;;;;5027238;28;80777;-68
2020/12/02 09:59:41;;;;;;;3.80;0.80;;;16.20;40.20;;;;;;5028925;28;80567;-68
2020/12/02 10:02:33;;;;;;;3.47;1.23;;;16.70;38.70;;;;;;5028671;28;81056;-68
2020/12/02 10:05:11;;;;;;;3.50;1.60;;;16.90;38.80;;;;;;5027276;28;80711;-68
2020/12/02 10:07:59;;;;;;;4.05;0.60;;;17.70;36.90;;;;;;5027329;28;83931;-67
2020/12/02 10:11:07;;;;;;;7.03;0.85;;;18.80;35.10;;;;;;5027287;28;81889;-69
2020/12/02 10:14:08;;;;;;;6.10;0.70;;;19.40;33.50;;;;;;5010572;28;81113;-69
2020/12/02 10:17:02;;;;;;;2.40;1.08;;;19.20;33.50;;;;;;5027295;28;83580;-68
2020/12/02 10:19:46;;;;;;;2.90;0.47;;;19.40;33.40;;;;;;5026963;28;81333;-69
2020/12/02 10:22:47;;;;;;;3.03;0.60;;;20.90;31.00;;;;;;5026556;28;82203;-69
2020/12/02 10:25:24;;;;;;;2.40;0.68;;;22.40;29.50;;;;;;5026592;28;82508;-69
2020/12/02 10:28:02;;;;;;;3.38;0.60;;;24.00;26.90;;;;;;5026585;28;80593;-70
2020/12/02 10:30:30;;;;;;;2.75;0.63;;;25.00;25.70;;;;;;5026172;28;79803;-68
2020/12/02 10:33:02;;;;;;;3.17;0.65;;;25.80;24.80;;;;;;5026456;28;81212;-68
2020/12/02 10:35:30;;;;;;;4.53;0.88;;;26.10;24.20;;;;;;5026225;28;81309;-68
2020/12/02 10:38:01;;;;;;;3.40;1.02;;;25.30;24.50;;;;;;5028632;28;79602;-69
2020/12/02 10:40:40;;;;;;;4.88;1.38;;;23.70;25.70;;;;;;5026528;28;80730;-69
2020/12/02 10:43:36;;;;;;;2.53;0.70;;;21.90;27.60;;;;;;5026638;28;80987;-68
2020/12/02 10:46:05;;;;;;;2.88;0.70;;;21.20;28.20;;;;;;5028380;28;80926;-69
2020/12/02 10:49:02;;;;;;;4.28;0.77;;;22.10;27.30;;;;;;5028112;28;80290;-70
2020/12/02 10:51:36;;;;;;;4.10;0.30;;;21.10;27.80;;;;;;5025270;28;80877;-68
2020/12/02 10:54:12;;;;;;;2.65;0.80;;;20.30;28.50;;;;;;5026173;28;79934;-68
2020/12/02 10:56:41;;;;;;;3.20;0.98;;;19.80;29.30;;;;;;5026349;28;80699;-68
2020/12/02 10:59:13;;;;;;;5.70;0.75;;;19.50;29.20;;;;;;5026007;28;80026;-68
2020/12/02 11:01:43;;;;;;;1.42;0.57;;;20.60;27.00;;;;;;5025870;28;82613;-69
2020/12/02 11:04:14;;;;;;;3.15;0.85;;;21.60;25.70;;;;;;5026081;28;83320;-69
2020/12/02 11:06:59;;;;;;;3.45;0.60;;;22.20;24.60;;;;;;5026140;28;80761;-68
2020/12/02 11:09:48;;;;;;;5.72;2.80;;;21.70;25.10;;;;;;5027781;28;79723;-67
2020/12/02 11:12:32;;;;;;;3.65;0.70;;;21.00;25.80;;;;;;5027055;28;82773;-68
2020/12/02 11:15:23;;;;;;;3.70;0.70;;;20.50;26.50;;;;;;5025917;28;79846;-68
2020/12/02 11:17:58;;;;;;;4.22;0.73;;;20.10;26.70;;;;;;5026357;28;83060;-68
2020/12/02 11:20:45;;;;;;;2.38;0.63;;;19.70;26.90;;;;;;5025989;28;81781;-68
2020/12/02 11:23:21;;;;;;;5.15;1.10;;;19.20;28.00;;;;;;5027423;28;79715;-70
2020/12/02 11:25:53;;;;;;;1.75;0.40;;;19.10;28.00;;;;;;5025994;28;80334;-68
2020/12/02 11:28:19;;;;;;;6.55;0.70;;;18.50;28.60;;;;;;5027523;28;80598;-68
2020/12/02 11:30:46;;;;;;;5.43;0.95;;;18.00;29.20;;;;;;5026027;28;80493;-68
2020/12/02 11:33:17;;;;;;;2.13;0.60;;;17.60;29.90;;;;;;5027261;28;80489;-68
2020/12/02 11:36:16;;;;;;;5.28;0.90;;;17.50;30.50;;;;;;5025778;28;81410;-69
2020/12/02 11:39:07;;;;;;;2.47;0.47;;;17.50;30.10;;;;;;5026991;28;80599;-68
2020/12/02 11:41:59;;;;;;;2.15;0.82;;;17.30;30.40;;;;;;5025662;28;80864;-68
2020/12/02 11:44:54;;;;;;;3.00;0.60;;;17.00;30.90;;;;;;5025343;28;83410;-68
2020/12/02 11:47:41;;;;;;;2.35;0.75;;;16.90;30.70;;;;;;5025502;28;80321;-68
2020/12/02 11:50:16;;;;;;;3.45;0.70;;;17.00;31.10;;;;;;5026863;28;81642;-69
2020/12/02 11:53:10;;;;;;;6.55;0.80;;;17.30;30.70;;;;;;5025588;28;80729;-69
2020/12/02 11:55:36;;;;;;;2.78;0.40;;;17.60;30.10;;;;;;5024676;28;81180;-68
2020/12/02 11:58:06;;;;;;;3.67;0.60;;;17.70;30.00;;;;;;5027134;28;80346;-67
2020/12/02 12:00:32;;;;;;;4.03;1.05;;;17.90;29.80;;;;;;5026724;28;80541;-69
2020/12/02 12:03:40;;;;;;;3.63;0.73;;;19.10;28.50;;;;;;5025158;28;81551;-68
2020/12/02 12:06:16;;;;;;;3.22;0.55;;;19.70;27.80;;;;;;4967898;28;81083;-70
2020/12/02 12:08:54;;;;;;;3.25;0.95;;;20.00;27.30;;;;;;5020704;28;83293;-69
2020/12/02 12:11:37;;;;;;;4.22;1.08;;;19.70;27.50;;;;;;5025224;28;82528;-69
2020/12/02 12:14:27;;;;;;;3.47;0.93;;;19.90;27.50;;;;;;5027324;28;79801;-69
2020/12/02 12:17:12;;;;;;;14.27;1.42;;;20.40;27.20;;;;;;5026891;28;80498;-69
2020/12/02 12:19:50;;;;;;;6.30;0.85;;;20.50;26.60;;;;;;5025154;28;80466;-69
2020/12/02 12:22:27;;;;;;;1.38;0.50;;;20.20;26.50;;;;;;5024719;28;82509;-69
2020/12/02 12:25:00;;;;;;;2.00;0.32;;;19.90;26.60;;;;;;5025002;28;81377;-69
2020/12/02 12:27:28;;;;;;;5.07;0.90;;;20.40;26.20;;;;;;5027055;28;80091;-69
2020/12/02 12:29:54;;;;;;;2.05;0.57;;;21.00;25.70;;;;;;5025289;28;80755;-68
2020/12/02 12:32:32;;;;;;;4.07;0.65;;;21.00;25.80;;;;;;5025077;28;80658;-69
2020/12/02 12:35:06;;;;;;;2.25;0.65;;;20.10;26.20;;;;;;5026699;28;80257;-68
2020/12/02 12:37:51;;;;;;;8.45;1.35;;;19.50;27.00;;;;;;5025013;28;80804;-69
2020/12/02 12:40:34;;;;;;;5.85;0.77;;;18.90;27.40;;;;;;5026785;28;80320;-69
2020/12/02 12:43:04;;;;;;;2.75;0.60;;;18.30;28.30;;;;;;5026307;28;80656;-69
2020/12/02 12:45:47;;;;;;;7.40;0.70;;;17.90;29.10;;;;;;5025111;28;80496;-68
2020/12/02 12:48:20;;;;;;;2.28;0.93;;;17.60;29.40;;;;;;5024919;28;83677;-69
2020/12/02 12:50:48;;;;;;;3.28;0.60;;;17.40;29.50;;;;;;5026605;28;80853;-68
2020/12/02 12:53:15;;;;;;;5.43;0.68;;;17.20;29.90;;;;;;5024713;28;82729;-68
2020/12/02 12:55:41;;;;;;;5.47;0.95;;;17.30;29.60;;;;;;5026575;28;83402;-68
2020/12/02 12:58:18;;;;;;;8.52;0.90;;;17.20;29.70;;;;;;5026702;28;81567;-69
2020/12/02 13:00:50;;;;;;;4.22;0.70;;;17.10;29.40;;;;;;5025083;28;80862;-68
2020/12/02 13:03:25;;;;;;;5.68;0.98;;;16.90;30.10;;;;;;5026200;28;80616;-68
2020/12/02 13:06:04;;;;;;;2.85;0.95;;;16.70;30.10;;;;;;5024790;28;81025;-69
2020/12/02 13:08:40;;;;;;;4.07;1.27;;;16.40;30.10;;;;;;5024638;28;80882;-68
2020/12/02 13:11:15;;;;;;;4.07;0.93;;;16.20;30.70;;;;;;5026176;28;79808;-69
2020/12/02 13:13:58;;;;;;;5.05;0.77;;;16.50;30.40;;;;;;5024589;28;83018;-68
2020/12/02 13:16:30;;;;;;;7.13;1.90;;;16.90;30.00;;;;;;5024217;28;80066;-70
2020/12/02 13:19:25;;;;;;;9.95;1.08;;;17.10;29.20;;;;;;5025779;28;80479;-68
2020/12/02 13:22:00;;;;;;;3.97;0.85;;;17.10;29.00;;;;;;5028572;28;79998;-68
2020/12/02 13:24:42;;;;;;;3.30;0.85;;;16.90;29.30;;;;;;5027522;28;83375;-69